Flight Track Log - Related Links

Times and Time Zones

All times are in EDT time to prevent confusion due to time zone crossing. See the SWA318 flight status page for this flight to view local times or setup timezone preferences in your user account.

Time Position Orientation Groundspeed Altitude Reporting Facility
EDT Latitude Longitude Course Direction KTS MPH feet Rate Location/Type
Thu 03:13:17 PM 33.3994 -112.1589 252° West 253 291 5,800  Level Albuquerque Center
Thu 03:14:19 PM 33.3339 -112.1736 191° South 292 336 8,000 2,032 Climbing Albuquerque Center
Thu 03:15:21 PM 33.2528 -112.1108 147° Southeast 299 344 10,000 1,887 Climbing Albuquerque Center
Thu 03:16:23 PM 33.2681 -112.0075 80° East 342 394 11,900 2,419 Climbing Albuquerque Center
Thu 03:17:25 PM 33.3103 -111.8978 65° Northeast 363 418 15,000 2,710 Climbing Albuquerque Center
Thu 03:18:27 PM 33.3539 -111.7806 66° East 384 442 17,500 2,177 Climbing Albuquerque Center
Thu 03:19:29 PM 33.3997 -111.6569 66° East 406 467 19,500 1,694 Climbing Albuquerque Center
Thu 03:20:31 PM 33.4575 -111.4989 66° East 434 499 21,000 726 Climbing Albuquerque Center
Thu 03:21:33 PM 33.5019 -111.3661 68° East 434 499 21,000  Level Albuquerque Center
Thu 03:22:35 PM 33.5197 -111.2233 81° East 436 502 21,000 341 Level Albuquerque Center
Thu 03:23:36 PM 33.5361 -111.0789 82° East 439 505 21,700 1,366 Climbing Albuquerque Center
Thu 03:24:38 PM 33.5517 -110.9294 83° East 451 519 23,800 1,839 Climbing Albuquerque Center
Thu 03:25:40 PM 33.5914 -110.7828 72° East 467 537 25,500 1,645 Climbing Albuquerque Center
Thu 03:26:42 PM 33.6489 -110.6061 69° East 474 545 27,200 1,500 Climbing Albuquerque Center
Thu 03:27:44 PM 33.6975 -110.4528 69° East 486 559 28,600 1,306 Climbing Albuquerque Center
Thu 03:28:46 PM 33.7456 -110.3022 69° East 500 575 29,900 1,452 Climbing Albuquerque Center
Thu 03:29:48 PM 33.7967 -110.1428 69° East 511 588 31,600 1,839 Climbing Albuquerque Center
Thu 03:30:50 PM 33.8525 -109.9531 70° East 509 586 33,700 1,659 Climbing Albuquerque Center
Thu 03:31:51 PM 33.8964 -109.7933 72° East 507 583 35,000 634 Climbing Albuquerque Center
Thu 03:32:53 PM 33.9403 -109.6350 71° East 505 581 35,000  Level Albuquerque Center
Thu 03:33:55 PM 33.9836 -109.4789 71° East 500 575 35,000  Level Albuquerque Center
Thu 03:34:57 PM 34.0283 -109.3203 71° East 501 577 35,000  Level Albuquerque Center
Thu 03:35:59 PM 34.0797 -109.1297 72° East 503 579 35,000  Level Albuquerque Center
Thu 03:37:01 PM 34.1228 -108.9711 72° East 501 577 35,000  Level Albuquerque Center
Thu 03:38:03 PM 34.1697 -108.8150 70° East 502 578 35,000  Level Albuquerque Center
Thu 03:39:05 PM 34.2300 -108.6656 64° Northeast 501 577 35,000  Level Albuquerque Center
Thu 03:40:07 PM 34.2900 -108.5169 64° Northeast 499 574 35,000  Level Albuquerque Center
Thu 03:41:09 PM 34.3569 -108.3439 65° Northeast 500 575 35,000  Level Albuquerque Center
Thu 03:42:10 PM 34.4150 -108.1969 64° Northeast 500 575 35,000  Level Albuquerque Center
Thu 03:43:12 PM 34.4733 -108.0447 65° Northeast 499 574 35,000  Level Albuquerque Center
Thu 03:44:14 PM 34.5322 -107.8931 65° Northeast 499 574 35,000  Level Albuquerque Center
Thu 03:45:16 PM 34.6019 -107.7119 65° Northeast 495 570 35,000  Level Albuquerque Center
Thu 03:46:18 PM 34.6608 -107.5608 65° Northeast 496 571 35,000  Level Albuquerque Center
Thu 03:47:20 PM 34.7178 -107.4094 65° Northeast 494 568 35,000  Level Albuquerque Center
Thu 03:48:22 PM 34.7744 -107.2578 66° East 496 571 35,000  Level Albuquerque Center
Thu 03:49:24 PM 34.8317 -107.1053 65° Northeast 497 572 35,000  Level Albuquerque Center
Thu 03:50:26 PM 34.8961 -106.9389 65° Northeast 501 577 35,000  Level Albuquerque Center
Thu 03:51:27 PM 34.9581 -106.7700 66° East 491 565 35,000  Level Albuquerque Center
Thu 03:52:29 PM 35.0119 -106.6214 66° East 494 568 35,000  Level Albuquerque Center
Thu 03:53:31 PM 35.0697 -106.4664 65° Northeast 510 587 35,000  Level Albuquerque Center
Thu 03:54:33 PM 35.1264 -106.3125 66° East 503 579 35,000  Level Albuquerque Center
Thu 03:55:35 PM 35.1922 -106.1306 66° East 489 563 35,000  Level Albuquerque Center
Thu 03:56:37 PM 35.2492 -105.9733 66° East 501 577 35,000  Level Albuquerque Center
Thu 03:57:39 PM 35.3075 -105.8156 66° East 505 581 35,000  Level Albuquerque Center
Thu 03:58:41 PM 35.3658 -105.6572 66° East 506 582 35,000 242 Level Albuquerque Center
Thu 03:59:43 PM 35.4239 -105.4978 66° East 506 582 35,500 726 Climbing Albuquerque Center
Thu 04:00:45 PM 35.4783 -105.3361 67° East 508 585 36,500 726 Climbing Albuquerque Center
Thu 04:01:47 PM 35.5364 -105.1742 66° East 511 588 37,000 242 Climbing Albuquerque Center
Thu 04:02:49 PM 35.6028 -104.9869 66° East 508 585 37,000  Level Albuquerque Center
Thu 04:03:51 PM 35.6603 -104.8253 66° East 509 586 37,000  Level Albuquerque Center
Thu 04:04:53 PM 35.7150 -104.6661 67° East 503 579 37,000  Level Albuquerque Center
Thu 04:05:55 PM 35.7708 -104.5064 67° East 501 577 37,000  Level Albuquerque Center
Thu 04:06:57 PM 35.8258 -104.3478 67° East 497 572 37,000  Level Albuquerque Center
Thu 04:07:59 PM 35.8811 -104.1889 67° East 497 572 37,000  Level Albuquerque Center
Thu 04:09:01 PM 35.9358 -104.0294 67° East 498 573 37,000  Level Albuquerque Center
Thu 04:10:03 PM 35.9903 -103.8675 67° East 502 578 37,000  Level Albuquerque Center
Thu 04:11:05 PM 36.0456 -103.7056 67° East 505 581 37,000  Level Albuquerque Center
Thu 04:12:07 PM 36.1008 -103.5433 67° East 506 582 37,000  Level Albuquerque Center
Thu 04:13:09 PM 36.1642 -103.3572 67° East 501 577 37,000  Level Albuquerque Center
Thu 04:14:11 PM 36.2183 -103.1939 68° East 504 580 37,000  Level Albuquerque Center
Thu 04:15:13 PM 36.2706 -103.0314 68° East 503 579 37,000  Level Albuquerque Center
Thu 04:16:15 PM 36.3253 -102.8644 68° East 501 577 37,000  Level Albuquerque Center
Thu 04:17:17 PM 36.3783 -102.7050 68° East 500 575 37,000  Level Albuquerque Center
Thu 04:18:19 PM 36.4311 -102.5422 68° East 504 580 37,000  Level Albuquerque Center
Thu 04:19:21 PM 36.4844 -102.3783 68° East 509 586 37,000  Level Albuquerque Center
Thu 04:20:23 PM 36.5372 -102.2142 68° East 511 588 37,000  Level Albuquerque Center
Thu 04:21:25 PM 36.6000 -102.0200 68° East 506 582 37,000  Level Albuquerque Center
Thu 04:22:27 PM 36.6494 -101.8600 69° East 507 583 37,000  Level Albuquerque Center
Thu 04:23:29 PM 36.7000 -101.7039 68° East 509 586 37,000  Level Albuquerque Center
Thu 04:24:31 PM 36.7567 -101.5228 69° East 505 581 37,000  Level Albuquerque Center
Thu 04:25:33 PM 36.8053 -101.3667 69° East 506 582 37,000  Level Albuquerque Center
Thu 04:26:42 PM 36.8611 -101.1856 69° East 503 579 37,000  Level Kansas City Center
Thu 04:27:42 PM 36.9178 -101.0064 68° East 500 575 37,000  Level Kansas City Center
Thu 04:28:46 PM 36.9650 -100.8519 69° East 500 575 37,000  Level Kansas City Center
Thu 04:29:46 PM 37.0194 -100.6728 69° East 497 572 37,000  Level Kansas City Center
Thu 04:30:50 PM 37.0675 -100.5186 69° East 499 574 37,000  Level Kansas City Center
Thu 04:31:51 PM 37.1219 -100.3372 69° East 500 575 37,000  Level Kansas City Center
Thu 04:32:55 PM 37.1686 -100.1825 69° East 499 574 37,000  Level Kansas City Center
Thu 04:33:55 PM 37.2228 -99.9986 70° East 504 580 37,000  Level Kansas City Center
Thu 04:34:59 PM 37.2689 -99.8428 70° East 503 579 37,000  Level Kansas City Center
Thu 04:35:59 PM 37.3228 -99.6583 70° East 505 581 37,000  Level Kansas City Center
Thu 04:37:01 PM 37.3683 -99.5003 70° East 503 579 37,000  Level Kansas City Center
Thu 04:38:04 PM 37.4214 -99.3281 69° East 509 586 37,000  Level Kansas City Center
Thu 04:39:05 PM 37.4703 -99.1653 69° East 501 577 37,000  Level Kansas City Center
Thu 04:40:09 PM 37.5119 -98.9967 73° East 504 580 37,000  Level Kansas City Center
Thu 04:41:10 PM 37.5589 -98.8322 70° East 503 579 37,000  Level Kansas City Center
Thu 04:42:14 PM 37.6153 -98.6381 70° East 494 568 37,000  Level Kansas City Center
Thu 04:43:15 PM 37.6611 -98.4753 70° East 494 568 37,000  Level Kansas City Center
Thu 04:44:16 PM 37.7092 -98.3142 69° East 492 566 37,000  Level Kansas City Center
Thu 04:45:20 PM 37.7542 -98.1508 71° East 492 566 37,000  Level Kansas City Center
Thu 04:46:21 PM 37.8003 -97.9764 71° East 483 556 37,000  Level Kansas City Center
Thu 04:47:22 PM 37.8431 -97.8114 72° East 488 562 37,000  Level Kansas City Center
Thu 04:48:26 PM 37.8900 -97.6511 70° East 488 562 37,000  Level Kansas City Center
Thu 04:49:26 PM 37.9331 -97.4944 71° East 485 558 37,000  Level Kansas City Center
Thu 04:50:29 PM 37.9853 -97.3281 68° East 485 558 37,000  Level Kansas City Center
Thu 04:51:31 PM 38.0531 -97.1803 60° Northeast 485 558 37,000  Level Kansas City Center
Thu 04:52:32 PM 38.1311 -97.0008 61° Northeast 484 557 37,000 -823 Level Kansas City Center
Thu 04:53:35 PM 38.1969 -96.8508 61° Northeast 485 558 35,300 -2,537 Descending Kansas City Center
Thu 04:54:35 PM 38.2639 -96.6969 61° Northeast 496 571 31,800 -2,758 Descending Kansas City Center
Thu 04:55:39 PM 38.3306 -96.5417 61° Northeast 501 577 29,600 -2,400 Descending Kansas City Center
Thu 04:56:40 PM 38.4019 -96.3767 61° Northeast 480 552 26,800 -2,419 Descending Kansas City Center
Thu 04:57:43 PM 38.4628 -96.2347 61° Northeast 477 549 24,600 -2,226 Descending Kansas City Center
Thu 04:58:44 PM 38.5300 -96.0703 62° Northeast 470 541 22,200 -2,129 Descending Kansas City Center
Thu 04:59:47 PM 38.5856 -95.9406 61° Northeast 444 511 20,200 -2,081 Descending Kansas City Center
Thu 05:00:48 PM 38.6483 -95.7953 61° Northeast 422 486 17,900 -2,016 Descending Kansas City Center
Thu 05:01:52 PM 38.6978 -95.6781 62° Northeast 396 456 16,000 -1,920 Descending Kansas City Center
Thu 05:02:53 PM 38.7547 -95.5403 62° Northeast 392 451 13,900 -1,967 Descending Kansas City Center
Thu 05:03:54 PM 38.8033 -95.4281 61° Northeast 380 437 12,000 -912 Descending Kansas City Center
Thu 05:04:58 PM 38.8772 -95.3197 49° Northeast 362 417 12,000  Level Kansas City Center
Thu 05:05:58 PM 38.9417 -95.2278 48° Northeast 363 418 12,000  Level Kansas City Center
Thu 05:07:02 PM 39.0169 -95.1214 48° Northeast 364 419 12,000  Level Kansas City Center
Thu 05:08:03 PM 39.0778 -95.0350 48° Northeast 338 389 12,000  Level Kansas City Center
Thu 05:09:06 PM 39.1347 -94.9461 50° Northeast 289 333 12,000 -387 Level Kansas City Center
Thu 05:10:07 PM 39.1542 -94.8478 76° East 297 342 11,200 -1,008 Descending Kansas City Center
Thu 05:11:11 PM 39.1750 -94.7356 76° East 288 331 9,900 -1,210 Descending Kansas City Center
Thu 05:12:11 PM 39.1775 -94.6414 88° East 280 322 8,700 -1,190 Descending Kansas City Center
Thu 05:13:12 PM 39.1708 -94.5336 95° East 271 312 7,500 -1,048 Descending Kansas City Center
Thu 05:14:17 PM 39.1864 -94.4489 77° East 255 293 6,500 -1,392 Descending Kansas City Center
Thu 05:15:17 PM 39.2528 -94.4297 13° North 225 259 4,600 -1,210 Descending Kansas City Center
Thu 05:16:21 PM 39.2719 -94.4897 292° West 189 217 4,000 -677 Descending Kansas City Center
Thu 05:17:21 PM 39.2767 -94.5567 275° West 168 193 3,200 -774 Descending Kansas City Center
Thu 05:18:25 PM 39.2811 -94.6100 276° West 159 183 2,400 -823 Descending Kansas City Center
Thu 05:19:25 PM 39.2856 -94.6642 276° West 138 159 1,500 -677 Descending Kansas City Center
Thu 05:20:29 PM 39.2892 -94.7142 275° West 137 158 1,000 -469 Descending Kansas City Center

Login

Don't have an account? Register now (free) for customized features, flight alerts, and more!